Terminal Aerodrome Forecast
Issued by NWS

Home | Current Version | Previous Version | Graphics & Text | Print | Product List | Glossary On
Versions: 1 2 3 4 5 6 7 8 9 10 11 12 13 14 15 16
000
FTUS43 KMPX 160500
TAFRNH
TAF
KRNH 160533Z 1606/1706 12006KT P6SM OVC080
     FM160800 10012KT P6SM VCSH OVC070
     FM161000 10015G22KT 6SM -SN OVC050
     FM161200 10017G24KT 4SM -SN OVC040
     FM161600 11014G22KT 6SM -RA BR OVC030
     FM162300 06012G18KT 4SM -RA BR OVC010=

USA.gov is the U.S. government's official web portal to all federal, state and local government web resources and services.